Time;durP1;ratioP1;P1;durP2;ratioP2;P2;SDS_P1;SDS_P2;PMS_P1;PMS_P2;Temp;Humidity;BMP_temperature;BMP_pressure;BME280_temperature;BME280_humidity;BME280_pressure;Samples;Min_cycle;Max_cycle;Signal;HPM_P1;HPM_P2
2024/02/13 00:01:28;;;;;;;9.68;6.82;;;;;;;-145.63;57.46;39182.66;5032162;28;20030;-64
2024/02/13 00:03:56;;;;;;;11.93;7.80;;;;;;;-145.63;57.66;39178.75;5018742;28;20030;-63
2024/02/13 00:06:22;;;;;;;10.35;7.55;;;;;;;-145.63;57.37;39198.31;5021051;28;20072;-64
2024/02/13 00:08:48;;;;;;;11.10;7.63;;;;;;;-145.63;57.36;39196.34;5021020;28;20034;-64
2024/02/13 00:11:14;;;;;;;10.57;7.40;;;;;;;-145.63;56.97;39196.34;5012747;28;20476;-64
2024/02/13 00:13:43;;;;;;;10.95;8.07;;;;;;;-145.63;57.38;39168.97;5032496;28;20091;-64
2024/02/13 00:16:10;;;;;;;11.07;8.18;;;;;;;-145.63;57.20;39186.56;5017044;28;20034;-63
2024/02/13 00:18:35;;;;;;;11.88;8.85;;;;;;;-145.63;57.88;39196.34;5026898;28;20108;-64
2024/02/13 00:21:02;;;;;;;13.98;9.25;;;;;;;-145.63;57.68;39167.00;5025835;28;20127;-63
2024/02/13 00:23:28;;;;;;;12.48;8.68;;;;;;;-145.63;56.97;39172.88;5016153;28;20085;-65
2024/02/13 00:25:54;;;;;;;16.58;9.65;;;;;;;-145.63;57.23;39174.84;5048305;28;20489;-63
2024/02/13 00:28:20;;;;;;;13.68;8.93;;;;;;;-145.63;57.63;39145.50;5032227;28;20048;-63
2024/02/13 00:30:46;;;;;;;15.18;9.52;;;;;;;-145.63;57.22;39168.97;5019591;28;20105;-65
2024/02/13 00:33:32;;;;;;;13.73;9.93;;;;;;;-145.63;56.98;39159.19;5024121;28;20073;-64
2024/02/13 00:36:17;;;;;;;14.48;9.63;;;;;;;-145.63;57.14;38996.88;5027080;28;20061;-64
2024/02/13 00:38:45;;;;;;;15.45;10.30;;;;;;;-145.63;57.60;39149.41;5019513;28;20029;-64
2024/02/13 00:41:12;;;;;;;14.35;9.43;;;;;;;-145.63;57.50;39172.88;5033904;28;20052;-64
2024/02/13 00:43:38;;;;;;;15.77;11.02;;;;;;;-145.63;57.18;39198.31;5011504;28;20115;-65
2024/02/13 00:46:04;;;;;;;16.27;10.15;;;;;;;-145.63;57.07;39168.97;5027143;28;20150;-64
2024/02/13 00:48:31;;;;;;;16.73;10.80;;;;;;;-145.63;57.19;39153.31;5032590;28;20040;-65
2024/02/13 00:50:58;;;;;;;15.85;10.55;;;;;;;-145.63;57.61;39145.50;5032195;28;20033;-64
2024/02/13 00:53:23;;;;;;;15.35;10.23;;;;;;;-145.63;57.89;39157.22;5031378;28;20040;-64
2024/02/13 00:55:50;;;;;;;17.35;10.93;;;;;;;-145.63;57.86;39151.38;5012327;28;20037;-64
2024/02/13 00:58:16;;;;;;;14.70;10.40;;;;;;;-145.63;57.41;39180.69;5028675;28;20382;-64
2024/02/13 01:00:42;;;;;;;17.70;11.35;;;;;;;-145.63;57.33;39172.88;5028979;28;20037;-64
2024/02/13 01:03:11;;;;;;;18.00;11.50;;;;;;;-145.63;57.40;39165.06;5025843;28;20382;-65
2024/02/13 01:05:40;;;;;;;20.02;12.10;;;;;;;-145.63;57.11;39153.31;5019421;28;20041;-64
2024/02/13 01:08:07;;;;;;;18.63;12.13;;;;;;;-145.63;57.39;39141.59;5024517;28;20438;-64
2024/02/13 01:10:34;;;;;;;17.67;10.80;;;;;;;-145.63;57.03;39157.22;5034355;28;20033;-64
2024/02/13 01:13:00;;;;;;;17.45;11.93;;;;;;;-145.63;56.54;39172.88;5021511;28;20045;-63
2024/02/13 01:15:26;;;;;;;16.30;11.05;;;;;;;-145.63;57.09;39137.69;5023651;28;20030;-64
2024/02/13 01:17:54;;;;;;;19.52;12.02;;;;;;;-145.63;57.05;39125.94;5035502;28;20029;-64
2024/02/13 01:20:23;;;;;;;17.80;12.00;;;;;;;-145.63;57.43;39157.22;5035304;28;20108;-64
2024/02/13 01:22:49;;;;;;;21.88;12.45;;;;;;;-145.63;57.42;39157.22;5035176;28;20431;-64
2024/02/13 01:25:17;;;;;;;18.00;11.63;;;;;;;-145.63;56.45;39139.63;5019279;28;20077;-63
2024/02/13 01:27:46;;;;;;;19.55;12.25;;;;;;;-145.63;57.35;39147.44;5034161;28;20115;-63
2024/02/13 01:30:13;;;;;;;18.65;12.13;;;;;;;-145.63;57.05;39149.41;5027994;28;20057;-64
2024/02/13 01:32:40;;;;;;;19.65;12.23;;;;;;;-145.63;57.38;39172.88;5018188;28;20084;-63
2024/02/13 01:35:07;;;;;;;19.42;12.93;;;;;;;-145.63;57.35;39141.59;5035116;28;20033;-65
2024/02/13 01:37:36;;;;;;;21.58;13.70;;;;;;;-145.63;56.86;39157.22;5016537;28;20025;-63
2024/02/13 01:40:05;;;;;;;18.52;12.13;;;;;;;-145.63;56.37;39149.41;5029055;28;20532;-63
2024/02/13 01:42:37;;;;;;;23.67;13.75;;;;;;;-145.63;56.32;39159.19;5025117;28;20026;-64
2024/02/13 01:45:07;;;;;;;21.48;13.13;;;;;;;-145.63;56.16;39167.00;5021118;28;20086;-63
2024/02/13 01:47:48;;;;;;;17.80;12.00;;;;;;;-145.63;56.24;39135.72;5034417;28;20040;-64
2024/02/13 01:50:18;;;;;;;19.05;12.45;;;;;;;-145.63;56.56;39118.13;5034778;28;20029;-63
2024/02/13 01:52:45;;;;;;;19.17;12.68;;;;;;;-145.63;56.55;39059.44;5034425;28;20034;-64
2024/02/13 01:55:13;;;;;;;19.08;12.68;;;;;;;-145.63;56.43;39168.97;5034504;28;20021;-64
2024/02/13 01:57:40;;;;;;;18.80;12.45;;;;;;;-145.63;56.66;39151.38;5034435;28;20104;-62
2024/02/13 02:00:13;;;;;;;20.95;13.23;;;;;;;-145.63;56.34;39141.59;5028731;28;20026;-63
2024/02/13 02:02:44;;;;;;;20.98;12.70;;;;;;;-145.63;56.68;39141.59;5017228;28;20529;-63
2024/02/13 02:05:13;;;;;;;20.20;13.38;;;;;;;-145.63;56.21;39141.59;5032308;28;20399;-63
2024/02/13 02:07:59;;;;;;;24.02;14.15;;;;;;;-145.63;55.87;39139.63;5023780;28;20041;-63
2024/02/13 02:10:25;;;;;;;22.48;13.20;;;;;;;-145.63;56.63;39123.97;5031556;28;20033;-64
2024/02/13 02:12:54;;;;;;;22.02;14.10;;;;;;;-145.63;56.49;39145.50;5020335;28;20034;-63
2024/02/13 02:15:20;;;;;;;22.17;14.93;;;;;;;-145.63;56.65;39155.28;5021368;28;20064;-63
2024/02/13 02:17:52;;;;;;;19.73;13.02;;;;;;;-145.63;56.15;38865.84;5033794;28;20478;-64
2024/02/13 02:20:19;;;;;;;21.25;13.55;;;;;;;-145.63;56.07;39167.00;5034573;28;20029;-64
2024/02/13 02:22:47;;;;;;;24.02;13.32;;;;;;;-145.63;56.48;39157.22;5014369;28;20380;-65
2024/02/13 02:25:18;;;;;;;18.88;12.63;;;;;;;-145.63;56.25;39147.44;5029206;28;20366;-64
2024/02/13 02:28:03;;;;;;;23.00;13.50;;;;;;;-145.63;56.53;39123.97;5027886;28;20463;-63
2024/02/13 02:30:31;;;;;;;22.33;14.07;;;;;;;-145.63;57.00;39149.41;5024446;28;20541;-63
2024/02/13 02:33:04;;;;;;;21.63;13.48;;;;;;;-145.63;56.29;39143.53;5019316;28;20037;-65
2024/02/13 02:35:29;;;;;;;24.23;14.38;;;;;;;-145.63;56.50;39135.72;5032769;28;20659;-63
2024/02/13 02:37:55;;;;;;;20.00;13.50;;;;;;;-145.63;57.05;39153.31;5014251;28;20034;-64
2024/02/13 02:40:21;;;;;;;22.73;14.70;;;;;;;-145.63;57.16;39118.13;5030048;28;20448;-64
2024/02/13 02:42:49;;;;;;;23.10;13.25;;;;;;;-145.63;56.55;39133.75;5022639;28;20092;-64
2024/02/13 02:45:15;;;;;;;18.40;11.98;;;;;;;-145.63;56.09;39141.59;5020615;28;20110;-64
2024/02/13 02:47:42;;;;;;;22.13;13.63;;;;;;;-145.63;56.78;39135.72;5033094;28;20029;-63
2024/02/13 02:50:10;;;;;;;19.90;12.50;;;;;;;-145.63;56.43;39120.06;5033711;28;20029;-63
2024/02/13 02:52:37;;;;;;;22.40;13.65;;;;;;;-145.63;56.56;39110.28;5033443;28;20127;-63
2024/02/13 02:55:06;;;;;;;21.15;13.52;;;;;;;-145.63;56.33;39030.13;5046861;28;20025;-64
2024/02/13 02:57:34;;;;;;;19.75;12.45;;;;;;;-145.63;56.32;39135.72;5034756;28;20108;-64
2024/02/13 02:59:59;;;;;;;22.65;13.18;;;;;;;-145.63;56.13;39120.06;5013941;28;20041;-64
2024/02/13 03:02:25;;;;;;;21.80;13.93;;;;;;;-145.63;56.54;39131.81;5013806;28;20169;-63
2024/02/13 03:04:50;;;;;;;22.17;13.50;;;;;;;-145.63;56.25;39125.94;5013679;28;20080;-63
2024/02/13 03:07:16;;;;;;;25.23;15.27;;;;;;;-145.63;55.94;39114.22;5021208;28;20049;-63
2024/02/13 03:09:42;;;;;;;23.33;14.02;;;;;;;-145.63;55.78;39127.91;5019012;28;20049;-64
2024/02/13 03:12:08;;;;;;;20.08;13.38;;;;;;;-145.63;56.30;38965.56;5019317;28;20159;-63
2024/02/13 03:14:33;;;;;;;23.95;14.20;;;;;;;-145.63;56.38;39141.59;5031998;28;20036;-64
2024/02/13 03:16:59;;;;;;;21.63;13.82;;;;;;;-145.63;56.07;39157.22;5013685;28;20393;-63
2024/02/13 03:19:26;;;;;;;24.45;14.27;;;;;;;-145.63;56.24;39129.84;5032853;28;20029;-63
2024/02/13 03:21:52;;;;;;;22.85;14.30;;;;;;;-145.63;55.21;39143.53;5021269;28;20033;-64
2024/02/13 03:24:17;;;;;;;23.10;15.13;;;;;;;-145.63;55.72;39133.75;5019952;28;20033;-63
2024/02/13 03:26:43;;;;;;;21.83;13.93;;;;;;;-145.63;55.72;39159.19;5031879;28;20025;-64
2024/02/13 03:29:29;;;;;;;21.58;13.52;;;;;;;-145.63;55.91;39120.06;5032093;28;20037;-64
2024/02/13 03:31:54;;;;;;;23.80;15.02;;;;;;;-145.63;56.31;39129.84;5024552;28;20427;-63
2024/02/13 03:34:21;;;;;;;24.38;15.23;;;;;;;-145.63;56.32;39129.84;5048599;28;20040;-65
2024/02/13 03:36:47;;;;;;;20.30;13.23;;;;;;;-145.63;56.43;39153.31;5035880;28;20029;-65
2024/02/13 03:39:13;;;;;;;24.15;14.13;;;;;;;-145.63;57.10;39127.91;5026396;28;20534;-64
2024/02/13 03:41:48;;;;;;;24.05;14.38;;;;;;;-145.63;56.19;39147.44;5014309;28;20033;-63
2024/02/13 03:44:13;;;;;;;22.38;14.25;;;;;;;-145.63;56.56;39129.84;5032482;28;20505;-63
2024/02/13 03:46:42;;;;;;;23.58;13.85;;;;;;;-145.63;56.08;39149.41;5031640;28;20065;-62
2024/02/13 03:49:11;;;;;;;21.80;13.45;;;;;;;-145.63;56.55;39127.91;5030551;28;20120;-64
2024/02/13 03:51:38;;;;;;;23.15;13.57;;;;;;;-145.63;56.44;39114.22;5027515;28;20033;-63
2024/02/13 03:54:08;;;;;;;25.30;14.35;;;;;;;-145.63;56.53;39151.38;5027727;28;20033;-63
2024/02/13 03:56:37;;;;;;;23.27;13.82;;;;;;;-145.63;57.13;39149.41;5045392;28;20070;-63
2024/02/13 03:59:08;;;;;;;22.45;14.48;;;;;;;-145.63;57.28;39129.84;5032685;28;20037;-63
2024/02/13 04:01:36;;;;;;;23.33;13.95;;;;;;;-145.63;56.60;39094.66;5027837;28;20475;-63
2024/02/13 04:04:04;;;;;;;23.75;13.95;;;;;;;-145.63;56.68;39125.94;5027296;28;20129;-64
2024/02/13 04:06:33;;;;;;;24.25;13.23;;;;;;;-145.63;56.30;39106.38;5027576;28;20025;-63
2024/02/13 04:09:02;;;;;;;21.35;12.85;;;;;;;-145.63;56.62;39153.31;5015819;28;20037;-64
2024/02/13 04:11:30;;;;;;;22.58;14.00;;;;;;;-145.63;57.09;39141.59;5026420;28;20033;-65
2024/02/13 04:13:56;;;;;;;21.60;13.20;;;;;;;-145.63;56.66;39112.25;5028643;28;20025;-63
2024/02/13 04:16:22;;;;;;;23.00;14.27;;;;;;;-145.63;56.31;39123.97;5033618;28;20137;-65
2024/02/13 04:18:48;;;;;;;20.15;13.13;;;;;;;-145.63;57.16;39116.16;5025318;28;20449;-63
2024/02/13 04:21:17;;;;;;;22.63;14.07;;;;;;;-145.63;57.01;39118.13;5016923;28;20116;-65
2024/02/13 04:23:48;;;;;;;21.10;14.15;;;;;;;-145.63;57.17;39122.03;5033590;28;20125;-65
2024/02/13 04:26:13;;;;;;;23.10;14.20;;;;;;;-145.63;57.47;38949.94;5033191;28;20033;-64
2024/02/13 04:28:41;;;;;;;25.85;15.20;;;;;;;-145.63;57.73;39129.84;5014665;28;20026;-64
2024/02/13 04:31:09;;;;;;;24.35;14.98;;;;;;;-145.63;57.55;39106.38;5032911;28;20049;-66
2024/02/13 04:33:36;;;;;;;25.98;14.90;;;;;;;-145.63;57.82;39129.84;5032195;28;20540;-64
2024/02/13 04:36:03;;;;;;;26.65;14.75;;;;;;;-145.63;57.12;39112.25;5028228;28;20042;-65
2024/02/13 04:38:31;;;;;;;24.27;15.63;;;;;;;-145.63;57.50;39100.50;5014004;28;20022;-63
2024/02/13 04:40:57;;;;;;;25.10;15.07;;;;;;;-145.63;57.38;39151.38;5036026;28;20405;-64
2024/02/13 04:43:35;;;;;;;23.15;14.02;;;;;;;-145.63;56.32;39120.06;5019294;28;20033;-65
2024/02/13 04:46:02;;;;;;;23.30;14.32;;;;;;;-145.63;57.05;39094.66;5040369;28;20112;-63
2024/02/13 04:48:30;;;;;;;28.33;15.15;;;;;;;-145.63;57.14;39116.16;5047490;28;20029;-62
2024/02/13 04:50:56;;;;;;;22.95;14.35;;;;;;;-145.63;57.43;39139.63;5035704;28;20506;-63
2024/02/13 04:53:22;;;;;;;24.70;15.45;;;;;;;-145.63;57.17;39114.22;5035793;28;20025;-64
2024/02/13 04:55:48;;;;;;;23.75;14.95;;;;;;;-145.63;57.05;39149.41;5029622;28;20485;-63
2024/02/13 04:58:17;;;;;;;25.17;14.48;;;;;;;-145.63;56.97;39135.72;5029883;28;20101;-64
2024/02/13 05:01:10;;;;;;;25.55;14.23;;;;;;;-145.63;56.71;39100.50;5035555;28;20037;-64
2024/02/13 05:03:41;;;;;;;21.02;13.50;;;;;;;-145.63;57.37;39135.72;5024379;28;20041;-64
2024/02/13 05:08:55;;;;;;;23.88;14.40;;;;;;;-145.63;57.59;39122.03;5025614;28;20112;-63
2024/02/13 05:11:25;;;;;;;22.15;14.80;;;;;;;-145.63;57.76;39104.44;5021643;28;20052;-63
2024/02/13 05:13:52;;;;;;;23.85;14.95;;;;;;;-145.63;57.49;39137.69;5034966;28;20493;-62
2024/02/13 05:16:18;;;;;;;25.83;14.65;;;;;;;-145.63;57.26;39116.16;5021244;28;20468;-63
2024/02/13 05:18:47;;;;;;;27.70;15.52;;;;;;;-145.63;57.07;39127.91;5022185;28;20026;-64
2024/02/13 05:21:14;;;;;;;23.17;15.05;;;;;;;-145.63;57.47;39116.16;5015512;28;20034;-66
2024/02/13 05:23:40;;;;;;;21.02;14.00;;;;;;;-145.63;57.15;39106.38;5018145;28;20033;-63
2024/02/13 05:26:12;;;;;;;21.88;13.20;;;;;;;-145.63;57.13;39108.34;5032939;28;20025;-62
2024/02/13 05:28:38;;;;;;;22.83;14.35;;;;;;;-145.63;56.80;39123.97;5028091;28;20383;-63
2024/02/13 05:31:10;;;;;;;22.45;13.23;;;;;;;-145.63;56.99;39120.06;5034679;28;20060;-64
2024/02/13 05:33:37;;;;;;;24.05;13.65;;;;;;;-145.63;57.14;39102.47;5034796;28;20045;-69
2024/02/13 05:36:04;;;;;;;23.42;14.15;;;;;;;-145.63;57.03;39082.91;5031373;28;20398;-65
2024/02/13 05:38:42;;;;;;;23.75;15.15;;;;;;;-145.63;57.03;39145.50;5014159;28;20116;-65
2024/02/13 05:41:08;;;;;;;21.08;13.68;;;;;;;-145.63;57.36;39071.19;5015102;28;20030;-65
2024/02/13 05:43:34;;;;;;;22.20;14.25;;;;;;;-145.63;56.66;39069.22;5030998;28;20095;-65
2024/02/13 05:46:02;;;;;;;20.05;13.35;;;;;;;-145.63;57.05;39149.41;5023701;28;20139;-65
2024/02/13 05:48:29;;;;;;;20.33;13.50;;;;;;;-145.63;57.17;39098.56;5021712;28;20040;-65
2024/02/13 05:50:55;;;;;;;25.42;14.65;;;;;;;-145.63;57.20;39032.06;5033641;28;20029;-66
2024/02/13 05:53:28;;;;;;;22.55;14.60;;;;;;;-145.63;57.02;39069.22;5034949;28;20045;-66
2024/02/13 05:55:54;;;;;;;21.20;14.05;;;;;;;-145.63;57.28;39069.22;5014259;28;20030;-65
2024/02/13 05:58:27;;;;;;;23.38;14.02;;;;;;;-145.63;57.57;39086.81;5029268;28;20029;-65
2024/02/13 06:00:53;;;;;;;23.98;14.32;;;;;;;-145.63;57.32;38447.38;5034704;28;20034;-65
2024/02/13 06:03:19;;;;;;;22.52;13.77;;;;;;;-145.63;57.81;39079.00;5029008;28;20080;-68
2024/02/13 06:05:45;;;;;;;22.70;14.18;;;;;;;-145.63;57.19;39061.41;5014151;28;20052;-67
2024/02/13 06:08:11;;;;;;;22.30;13.52;;;;;;;-145.63;57.64;39071.19;5033243;28;20033;-66
2024/02/13 06:10:39;;;;;;;23.48;13.98;;;;;;;-145.63;57.62;39063.34;5019109;28;20650;-64
2024/02/13 06:13:05;;;;;;;28.17;16.70;;;;;;;-145.63;57.45;39065.31;5034508;28;20037;-65
2024/02/13 06:15:31;;;;;;;25.60;15.20;;;;;;;-145.63;57.38;39043.81;5026949;28;20033;-65
2024/02/13 06:17:56;;;;;;;22.85;14.80;;;;;;;-145.63;56.64;39045.75;5023437;28;20522;-65
2024/02/13 06:20:25;;;;;;;24.05;15.57;;;;;;;-145.63;56.64;39051.63;5034415;28;20121;-66
2024/02/13 06:22:51;;;;;;;25.75;15.88;;;;;;;-145.63;56.68;39084.88;5015803;28;20053;-66
2024/02/13 06:25:17;;;;;;;22.15;13.93;;;;;;;-145.63;56.55;39075.09;5027940;28;20455;-66
2024/02/13 06:27:45;;;;;;;27.08;15.73;;;;;;;-145.63;56.46;39045.75;5025083;28;20071;-66
2024/02/13 06:30:14;;;;;;;24.80;14.40;;;;;;;-145.63;56.01;39041.84;5018673;28;20037;-66
2024/02/13 06:32:50;;;;;;;22.95;14.30;;;;;;;-145.63;55.91;39065.31;5033038;28;20475;-66
2024/02/13 06:35:16;;;;;;;24.35;14.02;;;;;;;-145.63;56.47;39065.31;5033924;28;20589;-65
2024/02/13 06:38:02;;;;;;;22.13;13.85;;;;;;;-145.63;56.12;39051.63;5014601;28;20042;-65
2024/02/13 06:40:27;;;;;;;23.92;14.23;;;;;;;-145.63;56.50;39065.31;5029106;28;20029;-64
2024/02/13 06:43:03;;;;;;;21.02;13.57;;;;;;;-145.63;56.46;39086.81;5022693;28;20470;-66
2024/02/13 06:45:30;;;;;;;26.20;15.27;;;;;;;-145.63;56.60;39035.97;5020451;28;20370;-64
2024/02/13 06:48:00;;;;;;;20.92;14.63;;;;;;;-145.63;56.59;39055.53;5031267;28;20034;-64
2024/02/13 06:50:27;;;;;;;20.80;14.18;;;;;;;-145.63;56.28;39039.88;5024240;28;20108;-66
2024/02/13 06:52:55;;;;;;;22.05;13.23;;;;;;;-145.63;56.28;39039.88;5031642;28;20117;-65
2024/02/13 06:55:21;;;;;;;20.55;13.30;;;;;;;-145.63;55.42;39043.81;5019664;28;20026;-65
2024/02/13 06:58:05;;;;;;;23.58;13.45;;;;;;;-145.63;55.55;39032.06;5025621;28;20024;-65
2024/02/13 07:00:32;;;;;;;23.50;13.73;;;;;;;-145.63;55.87;39014.47;5040321;28;20112;-64
2024/02/13 07:02:59;;;;;;;21.23;14.05;;;;;;;-145.63;55.53;39028.16;5053243;28;20392;-65
2024/02/13 07:05:27;;;;;;;21.85;14.70;;;;;;;-145.63;55.31;39065.31;5053244;28;20029;-65
2024/02/13 07:07:53;;;;;;;20.27;13.40;;;;;;;-145.63;55.24;39024.25;5042205;28;20041;-65
2024/02/13 07:10:19;;;;;;;20.55;13.52;;;;;;;-145.63;55.01;39055.53;5025418;28;20043;-65
2024/02/13 07:13:04;;;;;;;19.23;12.60;;;;;;;-145.63;54.97;39051.63;5030792;28;20100;-65
2024/02/13 07:15:30;;;;;;;20.45;12.98;;;;;;;-145.63;54.89;39045.75;5030762;28;20058;-68
2024/02/13 07:17:56;;;;;;;19.95;13.32;;;;;;;-145.63;54.99;39055.53;5023077;28;20017;-65
2024/02/13 07:20:26;;;;;;;18.58;12.27;;;;;;;-145.63;55.13;39024.25;5033777;28;20477;-65
2024/02/13 07:22:51;;;;;;;22.75;13.93;;;;;;;-145.63;55.05;39034.03;5015678;28;20045;-64
2024/02/13 07:25:17;;;;;;;18.77;12.40;;;;;;;-145.63;55.09;39020.34;5026651;28;20080;-65
2024/02/13 07:27:44;;;;;;;20.05;13.45;;;;;;;-145.63;55.29;39057.50;5024768;28;20030;-65
2024/02/13 07:30:13;;;;;;;20.80;14.05;;;;;;;-145.63;54.76;39059.44;5016616;28;20036;-65
2024/02/13 07:32:42;;;;;;;17.67;12.27;;;;;;;-145.63;54.61;39035.97;5033393;28;20068;-65
2024/02/13 07:35:09;;;;;;;19.65;11.90;;;;;;;-145.63;54.63;39037.94;5033025;28;20037;-65
2024/02/13 07:37:47;;;;;;;17.00;12.40;;;;;;;-145.63;54.95;39043.81;5016183;28;20041;-66
2024/02/13 07:40:14;;;;;;;19.60;13.30;;;;;;;-145.63;55.03;39035.97;5025470;28;20022;-64
2024/02/13 07:42:40;;;;;;;20.42;13.40;;;;;;;-145.63;54.84;39037.94;5025323;28;20072;-65
2024/02/13 07:45:06;;;;;;;19.25;14.02;;;;;;;-145.63;54.80;39037.94;5015769;28;20506;-66
2024/02/13 07:47:51;;;;;;;17.65;13.18;;;;;;;-145.63;54.69;39051.63;5032220;28;20071;-65
2024/02/13 07:50:16;;;;;;;19.77;13.25;;;;;;;-145.63;54.38;39039.88;5030466;28;20037;-66
2024/02/13 07:52:43;;;;;;;18.90;13.10;;;;;;;-145.63;54.61;39035.97;5032923;28;20029;-65
2024/02/13 07:55:08;;;;;;;20.58;13.30;;;;;;;-145.63;54.84;39053.59;5021496;28;20096;-65
2024/02/13 07:57:35;;;;;;;22.17;14.13;;;;;;;-145.63;54.68;38965.56;5030227;28;20021;-67
2024/02/13 08:00:03;;;;;;;20.63;13.68;;;;;;;-145.63;54.69;39047.72;5032829;28;20041;-66
2024/02/13 08:02:32;;;;;;;19.63;13.68;;;;;;;-145.63;54.07;39014.47;5032698;28;20033;-65
2024/02/13 08:04:57;;;;;;;20.50;12.30;;;;;;;-145.63;55.03;39032.06;5031211;28;20034;-65
2024/02/13 08:07:27;;;;;;;21.10;14.32;;;;;;;-145.63;54.91;39047.72;5028203;28;20034;-64
2024/02/13 08:09:56;;;;;;;19.58;13.35;;;;;;;-145.63;54.61;39039.88;5025596;28;20130;-67
2024/02/13 08:12:22;;;;;;;21.98;13.65;;;;;;;-145.63;54.49;39034.03;5031480;28;20064;-66
2024/02/13 08:14:48;;;;;;;21.73;14.75;;;;;;;-145.63;54.78;39028.16;5026831;28;20485;-65
2024/02/13 08:17:13;;;;;;;23.30;14.20;;;;;;;-145.63;54.44;39039.88;5036129;28;20017;-65
2024/02/13 08:19:42;;;;;;;20.52;13.40;;;;;;;-145.63;54.04;39034.03;5036489;28;20037;-65
2024/02/13 08:22:07;;;;;;;20.38;13.68;;;;;;;-145.63;53.82;39014.47;5035941;28;20471;-70
2024/02/13 08:24:35;;;;;;;21.23;13.52;;;;;;;-145.63;54.03;39057.50;5029869;28;20034;-65
2024/02/13 08:27:01;;;;;;;19.42;12.13;;;;;;;-145.63;54.16;39032.06;5029171;28;20113;-66
2024/02/13 08:29:27;;;;;;;19.92;11.93;;;;;;;-145.63;54.28;39026.19;5036550;28;20033;-67
2024/02/13 08:31:54;;;;;;;20.83;12.82;;;;;;;-145.63;54.44;39034.03;5027478;28;20068;-66
2024/02/13 08:34:21;;;;;;;20.98;13.70;;;;;;;-145.63;54.82;39030.13;5035912;28;20069;-66
2024/02/13 08:36:48;;;;;;;22.35;14.75;;;;;;;-145.63;54.70;39014.47;5035084;28;20386;-65
2024/02/13 08:39:14;;;;;;;22.92;14.40;;;;;;;-145.63;54.92;39035.97;5036298;28;20041;-66
2024/02/13 08:41:40;;;;;;;22.05;14.88;;;;;;;-145.63;54.36;39059.44;5035842;28;20052;-65
2024/02/13 08:44:09;;;;;;;20.55;13.27;;;;;;;-145.63;54.42;39039.88;5036204;28;20038;-66
2024/02/13 08:46:35;;;;;;;18.20;12.00;;;;;;;-145.63;54.55;38949.94;5031099;28;20109;-66
2024/02/13 08:49:01;;;;;;;18.58;12.73;;;;;;;-145.63;54.51;39008.59;5035688;28;20029;-65
2024/02/13 08:51:27;;;;;;;23.77;14.07;;;;;;;-145.63;54.48;39024.25;5033928;28;20039;-65
2024/02/13 08:53:53;;;;;;;22.35;13.77;;;;;;;-145.63;54.32;39032.06;5035745;28;20085;-67
2024/02/13 08:56:19;;;;;;;21.45;13.82;;;;;;;-145.63;54.51;39006.66;5035607;28;20490;-65
2024/02/13 08:58:45;;;;;;;20.70;13.60;;;;;;;-145.63;54.60;39045.75;5035917;28;20076;-67
2024/02/13 09:01:12;;;;;;;23.80;14.32;;;;;;;-145.63;53.71;39039.88;5035577;28;20065;-66
2024/02/13 09:03:37;;;;;;;21.00;13.60;;;;;;;-145.63;54.10;39020.34;5035410;28;20494;-67
2024/02/13 09:06:04;;;;;;;21.38;13.05;;;;;;;-145.63;54.33;39034.03;5026555;28;20033;-65
2024/02/13 09:08:32;;;;;;;21.83;13.40;;;;;;;-145.63;54.51;39045.75;5033667;28;20029;-66
2024/02/13 09:10:59;;;;;;;25.17;15.68;;;;;;;-145.63;55.17;39016.44;5027350;28;20030;-66
2024/02/13 09:13:24;;;;;;;21.80;13.73;;;;;;;-145.63;54.32;39053.59;5034701;28;20041;-66
2024/02/13 09:15:51;;;;;;;22.25;16.02;;;;;;;-145.63;54.59;39018.38;5029972;28;20026;-66
2024/02/13 09:18:17;;;;;;;21.25;14.05;;;;;;;-145.63;54.00;39035.97;5030299;28;20040;-65
2024/02/13 09:20:43;;;;;;;19.13;12.35;;;;;;;-145.63;54.17;39008.59;5031670;28;20433;-66
2024/02/13 09:23:09;;;;;;;19.90;12.80;;;;;;;-145.63;54.80;38998.81;5029426;28;20093;-65
2024/02/13 09:25:38;;;;;;;24.05;15.13;;;;;;;-145.63;54.84;39004.69;5030215;28;20351;-66
2024/02/13 09:28:04;;;;;;;22.50;13.45;;;;;;;-145.63;54.86;39030.13;5034769;28;20042;-66
2024/02/13 09:30:32;;;;;;;19.60;12.80;;;;;;;-145.63;54.80;39043.81;5033012;28;20049;-65
2024/02/13 09:32:58;;;;;;;20.95;13.38;;;;;;;-145.63;54.59;39010.56;5030592;28;20458;-66
2024/02/13 09:35:24;;;;;;;20.25;13.85;;;;;;;-145.63;54.90;39020.34;5033129;28;20069;-65
2024/02/13 09:37:58;;;;;;;20.98;13.82;;;;;;;-145.63;54.96;39047.72;5023105;28;20390;-65
2024/02/13 09:40:28;;;;;;;22.80;14.25;;;;;;;-145.63;54.73;39024.25;5035201;28;20021;-66
2024/02/13 09:42:54;;;;;;;26.15;15.05;;;;;;;-145.63;54.10;39024.25;5034670;28;20052;-67
2024/02/13 09:45:21;;;;;;;21.23;13.68;;;;;;;-145.63;54.32;39010.56;5034657;28;20108;-65
2024/02/13 09:47:49;;;;;;;22.73;13.52;;;;;;;-145.63;54.59;39034.03;5033943;28;20037;-66
2024/02/13 09:50:15;;;;;;;23.85;14.63;;;;;;;-145.63;54.99;39028.16;5027971;28;20034;-66
2024/02/13 09:52:47;;;;;;;21.55;13.52;;;;;;;-145.63;54.56;39028.16;5030434;28;20049;-68
2024/02/13 09:55:18;;;;;;;21.58;13.68;;;;;;;-145.63;54.54;39053.59;5030679;28;20029;-65
2024/02/13 09:57:47;;;;;;;21.55;13.85;;;;;;;-145.63;54.59;39024.25;5034548;28;20033;-66
2024/02/13 10:00:17;;;;;;;21.38;13.07;;;;;;;-145.63;54.53;39071.19;5033814;28;20041;-66
2024/02/13 10:02:44;;;;;;;22.10;13.45;;;;;;;-145.63;55.01;39032.06;5034314;28;20021;-65
2024/02/13 10:05:11;;;;;;;22.45;14.10;;;;;;;-145.63;54.61;39049.66;5031495;28;20502;-67
2024/02/13 10:07:42;;;;;;;20.92;13.40;;;;;;;-145.63;54.10;39030.13;5032635;28;20459;-65
2024/02/13 10:10:12;;;;;;;23.20;14.50;;;;;;;-145.63;54.53;39024.25;5030813;28;20029;-66
2024/02/13 10:12:53;;;;;;;;;;;;;;;-145.63;54.57;39037.94;5028364;28;20030;-66
2024/02/13 10:15:22;;;;;;;24.45;15.27;;;;;;;-145.63;54.65;39043.81;5027088;28;19944;-66
2024/02/13 10:17:49;;;;;;;21.10;14.27;;;;;;;-145.63;55.28;39039.88;5027034;28;20092;-66
2024/02/13 10:20:18;;;;;;;20.05;14.27;;;;;;;-145.63;54.78;39041.84;5027906;28;20048;-65
2024/02/13 10:22:48;;;;;;;20.60;12.98;;;;;;;-145.63;54.09;39041.84;5026752;28;20029;-65
2024/02/13 10:25:29;;;;;;;20.88;14.02;;;;;;;-145.63;54.11;39063.34;5029309;28;20091;-66
2024/02/13 10:27:55;;;;;;;26.83;14.97;;;;;;;-145.63;54.04;39043.81;5033544;28;20057;-64
2024/02/13 10:30:22;;;;;;;24.40;15.50;;;;;;;-145.63;54.07;39055.53;5030522;28;20049;-67
2024/02/13 10:32:48;;;;;;;24.13;14.82;;;;;;;-145.63;54.10;39026.19;5033620;28;20029;-65
2024/02/13 10:35:16;;;;;;;22.40;13.60;;;;;;;-145.63;54.23;39055.53;5030789;28;20463;-65
2024/02/13 10:37:46;;;;;;;21.52;14.40;;;;;;;-145.63;54.17;39059.44;5028455;28;20030;-65
2024/02/13 10:40:19;;;;;;;19.25;12.68;;;;;;;-145.63;53.79;39037.94;5030443;28;20033;-66
2024/02/13 10:42:45;;;;;;;23.45;15.05;;;;;;;-145.63;54.28;39018.38;5028585;28;20032;-65
2024/02/13 10:45:13;;;;;;;21.65;14.25;;;;;;;-145.63;53.86;39051.63;5030905;28;20032;-65
2024/02/13 10:48:06;;;;;;;25.55;14.75;;;;;;;-145.63;53.75;39055.53;5032845;28;20025;-66
2024/02/13 10:50:35;;;;;;;23.33;13.93;;;;;;;-145.63;54.03;38983.19;5030907;28;20025;-66
2024/02/13 10:53:03;;;;;;;22.70;15.02;;;;;;;-145.63;54.56;39024.25;5016586;28;20065;-65
2024/02/13 10:55:33;;;;;;;20.55;13.63;;;;;;;-145.63;54.26;39034.03;5030490;28;20033;-65
2024/02/13 10:57:59;;;;;;;21.42;13.35;;;;;;;-145.63;54.47;39037.94;5033188;28;20064;-65
2024/02/13 11:00:26;;;;;;;22.27;14.40;;;;;;;-145.63;54.51;38963.63;5032494;28;20116;-65
2024/02/13 11:02:54;;;;;;;23.30;14.80;;;;;;;-145.63;54.42;39037.94;5031292;28;20033;-64
2024/02/13 11:05:23;;;;;;;22.55;14.13;;;;;;;-145.63;54.25;39047.72;5031609;28;20037;-66
2024/02/13 11:07:50;;;;;;;21.85;14.02;;;;;;;-145.63;53.97;39063.34;5030440;28;20033;-64
2024/02/13 11:10:16;;;;;;;21.13;13.50;;;;;;;-145.63;53.69;39032.06;5033387;28;20398;-65